Relevés horaires Matro (Suisse)


Relevés horaires à Matro - Jeudi 15 Janv. 2015
Heure UTC1 Température [°C] Vent [km/h] Hum. [%] Pres.4 [hPa] Visi. [Km] Nébu. [octa] Préc.5 [mm] Cond.
2m. Res. Ros. Dir.2 Vit. Moy. Raf.3
23:00 -3.1 -10.9 -3.1 SSE 33.3 33.3 44.4 100 850(-0.5/3h) -- -- -- --
22:00 -4.0 -11.9 -4.0 SE 31.5 33.3 44.4 100 850(-0.2/3h) -- -- -- --
21:00 -3.9 -12.3 -4.7 SSE 37.0 40.7 59.3 94 850(-0.2/3h) -- -- -- --
20:00 -3.7 -12.1 -5.6 SSE 37.0 40.7 46.3 87 850(-0.1/3h) -- -- -- --
19:00 -4.0 -12.8 -5.0 SE 40.7 40.7 46.3 93 850(-0.6/3h) -- -- -- --
18:00 -3.9 -12.5 -3.9 SSE 38.9 40.7 50.0 100 850(-0.6/3h) -- -- -- --
17:00 -3.8 -12.4 -3.8 SE 38.9 38.9 44.4 100 850(-0.3/3h) -- -- -- --
16:00 -3.8 -9.8 -3.8 SSE 18.5 24.1 29.6 100 850(-0.3/3h) -- -- -- --
15:00 -4.1 -11.1 -6.6 SSE 24.1 37.0 42.6 83 850(-0.9/3h) -- -- -- --
14:00 -4.0 -12.1 -4.0 SE 33.3 33.3 40.7 100 850(-1.7/3h) -- -- -- --
13:00 -4.2 -11.7 -4.2 SSE 27.8 27.8 33.3 100 850(-1.3/3h) -- -- -- --
12:00 -4.1 -10.2 -5.3 SSE 18.5 35.2 42.6 91 850(-0.5/3h) -- -- -- --
11:00 -3.9 -10.2 -6.6 S 20.4 25.9 31.5 81 850(0.1/3h) -- -- -- --
10:00 -4.2 -11.2 -8.4 S 24.1 29.6 40.7 72 850(0.2/3h) -- -- -- --
09:00 -4.7 -13 -8.8 SSE 33.3 35.2 42.6 73 850(0.3/3h) -- -- -- --
08:00 -4.5 -12.7 -10.4 SE 33.3 33.3 40.7 63 850(0.3/3h) -- -- -- --
07:00 -3.9 -11.5 -11.2 SE 29.6 29.6 38.9 57 850(0.0/3h) -- -- -- --
06:00 -3.8 -11.6 -12.4 SE 31.5 40.7 46.3 51 850(-0.5/3h) -- -- -- --
05:00 -3.6 -11.5 -13.7 SSE 33.3 38.9 46.3 45 850(-0.7/3h) -- -- -- --
04:00 -2.7 -10.9 -14.3 SSE 38.9 40.7 46.3 40 850(-0.8/3h) -- -- -- --
03:00 -1.9 -8.9 -14.7 SSE 29.6 29.6 42.6 37 850(-0.7/3h) -- -- -- --
02:00 -1.6 -8.1 -15.5 SSE 25.9 27.8 35.2 34 850(-0.7/3h) -- -- -- --
01:00 -3.3 -8 -16.3 ESE 13.0 14.8 18.5 36 850(-0.1/3h) -- -- -- --
00:00 -2.8 -7.8 -16.9 S 14.8 33.3 50.0 33 850(0.7/3h) -- -- -- --

1 Coordinated Universal Time. Actuellement il est 17:00 locale et 15:00 UTC.

2 Le vent souffle depuis la direction indiquée vers la direction oposée.

3 Les rafales max. sont disponible 40 min après l'heure du relevé.

4 Pour les stations d'altitude (plus de 600m) le géopotentiel du niveau le plus proche de la pression obligatoire est indiqué.

5 Les stations disposant d'un diffuseur peuvent indiquer "trace". Cela signifie que des précipitations ont touchés le sol mais que la quantité est inférieure à 0.1 mm.

Copyright

Les données affichées sur cette page sont la propriété exclusive de Météo Suisse.

Récapitulatif de la journée
Température [°C] Vent [km/h] Ensoleillement4 [h] Precipitations totale5 [mm] Pression [Hpa]
Min1 Max.2 Moy.3 Max. Min Max.
-4.6 -3.2 33.5 59.3 1 h 0 min 0 850.0 850.0

1 Température minimale relevée entre 18:00 UTC la veille et 18:00 UTC le jour donné.

2 Température maximale relevée entre 06:00 UTC le jour donné et 06:00 UTC le lendemain.

3 Vent moyen de la journée basé sur les relevés horaires.

4 Ensoleillement en heures relevé entre 06:00 UTC la veille et 06:00 UTC le jour donné.

5 Précipitations totales tombées entre 06:00 UTC la jour donné et 06:00 UTC le lendemain.

Graphiques horaires